Time;durP1;ratioP1;P1;durP2;ratioP2;P2;SDS_P1;SDS_P2;PMS_P1;PMS_P2;Temp;Humidity;BMP_temperature;BMP_pressure;BME280_temperature;BME280_humidity;BME280_pressure;Samples;Min_cycle;Max_cycle;Signal;HPM_P1;HPM_P2
2022/11/15 00:00:29;;;;;;;12.23;7.87;;;10.10;29.30;;;;;;5074053;28;20473;-70
2022/11/15 00:02:56;;;;;;;14.17;8.47;;;10.00;29.30;;;;;;5063792;28;20487;-70
2022/11/15 00:05:23;;;;;;;14.40;9.07;;;10.00;29.30;;;;;;5058227;28;20469;-70
2022/11/15 00:07:50;;;;;;;12.87;8.40;;;10.00;29.40;;;;;;5055161;28;20466;-70
2022/11/15 00:10:17;;;;;;;12.10;7.80;;;10.00;29.40;;;;;;5061905;28;20481;-70
2022/11/15 00:12:43;;;;;;;11.30;7.50;;;10.00;29.20;;;;;;5060141;28;20460;-68
2022/11/15 00:15:10;;;;;;;12.80;7.87;;;10.00;29.00;;;;;;5062802;28;20481;-70
2022/11/15 00:17:38;;;;;;;14.13;8.77;;;10.00;29.00;;;;;;5063484;28;20481;-69
2022/11/15 00:20:06;;;;;;;14.33;8.00;;;10.00;28.80;;;;;;5064224;28;20532;-71
2022/11/15 00:22:33;;;;;;;13.47;9.10;;;10.00;28.80;;;;;;5062357;28;20461;-70
2022/11/15 00:25:00;;;;;;;12.90;8.13;;;10.00;28.90;;;;;;5062161;28;20508;-70
2022/11/15 00:27:28;;;;;;;13.13;8.60;;;10.00;28.90;;;;;;5053631;28;20476;-69
2022/11/15 00:29:55;;;;;;;14.07;8.67;;;9.90;29.20;;;;;;5061444;28;20474;-70
2022/11/15 00:32:22;;;;;;;12.13;8.50;;;9.90;29.40;;;;;;5058509;28;20474;-71
2022/11/15 00:34:50;;;;;;;12.27;8.00;;;9.80;29.70;;;;;;5064313;28;20482;-69
2022/11/15 00:37:16;;;;;;;12.60;8.13;;;9.70;29.80;;;;;;5065026;28;20846;-69
2022/11/15 00:39:43;;;;;;;11.57;8.17;;;9.70;30.00;;;;;;5064474;28;20481;-70
2022/11/15 00:42:10;;;;;;;11.20;8.10;;;9.70;30.10;;;;;;5063001;28;20468;-70
2022/11/15 00:44:37;;;;;;;11.90;8.00;;;9.70;30.10;;;;;;5056230;28;20460;-70
2022/11/15 00:47:04;;;;;;;14.60;8.10;;;9.70;29.90;;;;;;5059720;28;20632;-70
2022/11/15 00:49:30;;;;;;;12.57;8.27;;;9.60;30.00;;;;;;5063761;28;20979;-69
2022/11/15 00:51:58;;;;;;;10.87;7.23;;;9.60;30.30;;;;;;5060750;28;20970;-70
2022/11/15 00:54:25;;;;;;;12.33;8.20;;;9.50;30.40;;;;;;5059150;28;20938;-70
2022/11/15 00:56:52;;;;;;;11.03;8.20;;;9.50;30.50;;;;;;5065548;28;20457;-69
2022/11/15 00:59:19;;;;;;;12.87;8.03;;;9.40;30.60;;;;;;5059869;28;20480;-69
2022/11/15 01:01:45;;;;;;;15.70;8.60;;;9.40;30.70;;;;;;5062534;28;20470;-69
2022/11/15 01:04:12;;;;;;;12.77;8.07;;;9.40;30.80;;;;;;5065845;28;20939;-69
2022/11/15 01:06:39;;;;;;;12.80;7.83;;;9.30;31.00;;;;;;5060166;28;20454;-69
2022/11/15 01:09:07;;;;;;;12.80;8.30;;;9.30;31.10;;;;;;5064796;28;20480;-69
2022/11/15 01:11:34;;;;;;;16.97;8.20;;;9.20;31.20;;;;;;5057685;28;20461;-70
2022/11/15 01:14:00;;;;;;;12.00;7.70;;;9.20;31.30;;;;;;5062776;28;20462;-69
2022/11/15 01:16:27;;;;;;;12.70;8.60;;;9.20;31.50;;;;;;5063872;28;20469;-70
2022/11/15 01:18:54;;;;;;;13.63;8.67;;;9.20;31.50;;;;;;5065547;28;20469;-69
2022/11/15 01:21:21;;;;;;;13.77;8.50;;;9.20;31.50;;;;;;5057261;28;20457;-70
2022/11/15 01:23:48;;;;;;;12.57;7.63;;;9.10;31.60;;;;;;5064110;28;20457;-71
2022/11/15 01:26:17;;;;;;;14.40;8.40;;;9.10;31.70;;;;;;5060677;28;21293;-69
2022/11/15 01:28:43;;;;;;;13.13;8.43;;;9.00;31.70;;;;;;5064842;28;21279;-70
2022/11/15 01:31:14;;;;;;;12.20;7.70;;;9.00;31.90;;;;;;5060975;28;20546;-69
2022/11/15 01:33:41;;;;;;;13.43;8.30;;;9.00;32.00;;;;;;5058641;28;20859;-71
2022/11/15 01:36:12;;;;;;;11.57;8.23;;;9.00;32.10;;;;;;5064155;28;20481;-69
2022/11/15 01:38:39;;;;;;;11.87;8.67;;;8.90;32.30;;;;;;5057389;28;20450;-69
2022/11/15 01:41:06;;;;;;;13.10;7.70;;;8.90;32.50;;;;;;5067883;28;20468;-70
2022/11/15 01:43:36;;;;;;;9.83;7.27;;;8.80;32.50;;;;;;5066930;28;20460;-69
2022/11/15 01:46:07;;;;;;;11.43;7.47;;;8.80;33.20;;;;;;5064201;28;20831;-70
2022/11/15 01:48:36;;;;;;;10.33;7.57;;;8.80;32.80;;;;;;5061859;28;20464;-69
2022/11/15 01:51:07;;;;;;;11.97;7.53;;;8.80;32.70;;;;;;5064479;28;20453;-68
2022/11/15 01:53:37;;;;;;;11.07;7.50;;;8.80;32.80;;;;;;5059407;28;20467;-70
2022/11/15 01:56:07;;;;;;;13.37;8.40;;;8.80;32.90;;;;;;5067406;28;20846;-69
2022/11/15 01:58:36;;;;;;;16.03;7.73;;;8.80;32.90;;;;;;5067039;28;20456;-71
2022/11/15 02:01:03;;;;;;;9.87;6.73;;;8.80;32.80;;;;;;5064997;28;20868;-69
2022/11/15 02:03:38;;;;;;;11.73;7.30;;;8.70;32.80;;;;;;5063696;28;20455;-69
2022/11/15 02:06:06;;;;;;;10.47;7.10;;;8.70;32.90;;;;;;5065204;28;20460;-69
2022/11/15 02:08:33;;;;;;;11.47;7.30;;;8.60;32.80;;;;;;5063184;28;20466;-69
2022/11/15 02:11:00;;;;;;;11.37;6.63;;;8.60;32.80;;;;;;5055462;28;20464;-69
2022/11/15 02:13:27;;;;;;;10.80;6.90;;;8.50;32.80;;;;;;5063726;28;20475;-69
2022/11/15 02:16:05;;;;;;;11.80;6.67;;;8.50;32.90;;;;;;5062394;28;21000;-70
2022/11/15 02:18:36;;;;;;;11.70;7.30;;;8.40;33.20;;;;;;5064188;28;20463;-70
2022/11/15 02:21:12;;;;;;;9.57;6.93;;;8.40;33.10;;;;;;5066778;28;20479;-70
2022/11/15 02:24:18;;;;;;;9.90;6.70;;;8.40;33.10;;;;;;5065356;28;20457;-71
2022/11/15 02:27:27;;;;;;;10.53;6.63;;;8.30;33.30;;;;;;5062488;28;20559;-69
2022/11/15 02:30:21;;;;;;;9.57;6.13;;;8.30;33.40;;;;;;5013035;28;20485;-69
2022/11/15 02:32:52;;;;;;;10.50;7.13;;;8.30;33.40;;;;;;5055717;28;20469;-71
2022/11/15 02:35:30;;;;;;;11.00;7.17;;;8.20;33.20;;;;;;5065389;28;20481;-69
2022/11/15 02:38:00;;;;;;;10.50;7.10;;;8.20;33.20;;;;;;5059040;28;20453;-70
2022/11/15 02:40:38;;;;;;;10.93;7.30;;;8.10;33.50;;;;;;5058532;28;20489;-68
2022/11/15 02:46:15;;;;;;;10.70;7.30;;;8.00;33.60;;;;;;5009333;28;21330;-68
2022/11/15 02:48:44;;;;;;;11.20;7.07;;;8.00;33.80;;;;;;5011660;28;20466;-69
2022/11/15 02:51:12;;;;;;;14.10;7.70;;;7.90;33.90;;;;;;5035001;28;20460;-69
2022/11/15 02:53:39;;;;;;;11.67;7.70;;;7.90;34.00;;;;;;5064082;28;20471;-69
2022/11/15 02:56:09;;;;;;;12.50;7.57;;;7.80;34.00;;;;;;5064031;28;20481;-69
2022/11/15 02:58:49;;;;;;;10.73;7.53;;;7.80;34.00;;;;;;5058351;28;20485;-68
2022/11/15 03:01:30;;;;;;;10.60;7.43;;;7.80;34.30;;;;;;5059179;28;20478;-69
2022/11/15 03:04:05;;;;;;;11.43;7.90;;;7.70;34.40;;;;;;5053791;28;20469;-69
2022/11/15 03:06:39;;;;;;;11.20;7.20;;;7.70;34.40;;;;;;5059870;28;21221;-70
2022/11/15 03:09:12;;;;;;;11.00;7.90;;;7.70;34.60;;;;;;5064817;28;20495;-69
2022/11/15 03:11:45;;;;;;;10.53;7.07;;;7.70;34.60;;;;;;5059599;28;20461;-69
2022/11/15 03:14:22;;;;;;;17.03;8.73;;;7.80;34.70;;;;;;5060280;28;20461;-70
2022/11/15 03:16:59;;;;;;;12.90;6.97;;;7.60;34.70;;;;;;5059903;28;20460;-70
2022/11/15 03:19:31;;;;;;;11.83;7.97;;;7.60;34.70;;;;;;5054067;28;21011;-70
2022/11/15 03:22:01;;;;;;;11.67;7.40;;;7.60;34.70;;;;;;5061528;28;20453;-69
2022/11/15 03:24:31;;;;;;;10.97;7.67;;;7.50;34.80;;;;;;5065084;28;20457;-69
2022/11/15 03:27:02;;;;;;;10.87;8.10;;;7.50;34.80;;;;;;5062096;28;21300;-70
2022/11/15 03:29:33;;;;;;;12.87;8.43;;;7.50;34.90;;;;;;5058788;28;20500;-69
2022/11/15 03:32:06;;;;;;;12.00;7.37;;;7.50;35.00;;;;;;5057853;28;20474;-70
2022/11/15 03:34:38;;;;;;;11.07;7.47;;;7.40;35.10;;;;;;5059619;28;20456;-71
2022/11/15 03:37:06;;;;;;;13.80;7.47;;;7.40;35.10;;;;;;5065231;28;20465;-69
2022/11/15 03:39:34;;;;;;;10.60;7.20;;;7.30;35.20;;;;;;5063706;28;20480;-69
2022/11/15 03:42:09;;;;;;;10.77;7.23;;;7.30;35.20;;;;;;5061500;28;20466;-70
2022/11/15 03:44:42;;;;;;;10.30;6.63;;;7.20;35.20;;;;;;5065311;28;20465;-70
2022/11/15 03:47:13;;;;;;;10.03;6.57;;;7.20;35.30;;;;;;5060493;28;20457;-70
2022/11/15 03:49:44;;;;;;;14.30;7.40;;;7.20;35.40;;;;;;5065600;28;20484;-70
2022/11/15 03:52:12;;;;;;;9.90;7.00;;;7.10;35.50;;;;;;5067095;28;20464;-71
2022/11/15 03:54:49;;;;;;;11.70;6.93;;;7.10;36.20;;;;;;5065198;28;20460;-70
2022/11/15 03:57:15;;;;;;;12.23;7.10;;;7.10;35.70;;;;;;5054665;28;20468;-70
2022/11/15 03:59:42;;;;;;;12.43;6.60;;;7.00;35.50;;;;;;5061389;28;20789;-69
2022/11/15 04:02:10;;;;;;;12.77;7.27;;;7.10;35.60;;;;;;5060900;28;20962;-70
2022/11/15 04:04:37;;;;;;;11.00;6.60;;;7.00;35.60;;;;;;5061722;28;20465;-70
2022/11/15 04:07:04;;;;;;;10.60;7.10;;;7.00;35.70;;;;;;5062586;28;20862;-69
2022/11/15 04:09:31;;;;;;;12.77;8.37;;;7.00;35.70;;;;;;5060396;28;20485;-69
2022/11/15 04:11:57;;;;;;;12.30;7.80;;;7.00;35.80;;;;;;5058092;28;20468;-69
2022/11/15 04:14:24;;;;;;;10.10;7.43;;;7.00;35.80;;;;;;5056915;28;20457;-69
2022/11/15 04:16:51;;;;;;;10.37;7.50;;;6.90;36.10;;;;;;5056469;28;20477;-69
2022/11/15 04:24:47;;;;;;;9.97;6.90;;;6.80;36.60;;;;;;5063447;28;20441;-69
2022/11/15 04:27:14;;;;;;;11.90;8.10;;;6.80;36.70;;;;;;5063876;28;20850;-69
2022/11/15 04:29:41;;;;;;;11.83;7.80;;;6.80;36.70;;;;;;5060068;28;20484;-63
2022/11/15 04:32:08;;;;;;;12.67;7.80;;;6.80;36.80;;;;;;5057423;28;20488;-64
2022/11/15 04:34:38;;;;;;;10.97;6.70;;;6.80;36.90;;;;;;5062070;28;21009;-64
2022/11/15 04:37:12;;;;;;;9.83;7.73;;;6.80;36.70;;;;;;5060098;28;20524;-64
2022/11/15 04:39:39;;;;;;;10.17;7.53;;;6.80;36.70;;;;;;5060722;28;20477;-65
2022/11/15 04:42:06;;;;;;;12.27;7.70;;;6.80;36.70;;;;;;5058834;28;20465;-65
2022/11/15 04:44:33;;;;;;;10.50;7.40;;;6.80;36.60;;;;;;5058469;28;20465;-66
2022/11/15 04:47:00;;;;;;;12.77;8.67;;;6.80;36.70;;;;;;5056357;28;20456;-64
2022/11/15 04:49:27;;;;;;;11.77;7.77;;;6.80;36.70;;;;;;5058058;28;20485;-64
2022/11/15 04:51:55;;;;;;;13.67;9.67;;;6.80;36.90;;;;;;5059554;28;20957;-64
2022/11/15 04:54:22;;;;;;;11.53;8.00;;;6.80;36.80;;;;;;5055714;28;20980;-64
2022/11/15 04:56:48;;;;;;;13.10;8.43;;;6.90;37.00;;;;;;5056596;28;20977;-64
2022/11/15 04:59:15;;;;;;;13.37;8.20;;;6.90;37.10;;;;;;5058213;28;20491;-64
2022/11/15 05:01:42;;;;;;;12.53;8.53;;;6.90;37.10;;;;;;5059231;28;20488;-64
2022/11/15 05:04:20;;;;;;;13.20;9.43;;;6.90;37.20;;;;;;5062476;28;20995;-64
2022/11/15 05:06:48;;;;;;;13.30;7.73;;;6.90;37.30;;;;;;5057883;28;20912;-64
2022/11/15 05:09:16;;;;;;;11.30;8.30;;;6.90;37.20;;;;;;5059000;28;20487;-64
2022/11/15 05:11:43;;;;;;;14.37;9.33;;;6.90;37.20;;;;;;5056680;28;20464;-64
2022/11/15 05:14:10;;;;;;;14.83;8.77;;;7.00;37.30;;;;;;5059086;28;20457;-64
2022/11/15 05:16:37;;;;;;;10.97;7.80;;;7.00;37.20;;;;;;5064615;28;20483;-69
2022/11/15 05:19:05;;;;;;;14.40;8.30;;;7.00;37.20;;;;;;5057173;28;21007;-65
2022/11/15 05:21:33;;;;;;;11.43;7.97;;;7.00;37.30;;;;;;5066382;28;20464;-63
2022/11/15 05:24:00;;;;;;;16.73;10.07;;;7.00;37.30;;;;;;5070709;28;20460;-64
2022/11/15 05:26:28;;;;;;;12.57;8.83;;;7.00;37.30;;;;;;5053778;28;20458;-64
2022/11/15 05:28:56;;;;;;;13.00;9.00;;;6.90;37.30;;;;;;5070688;28;20479;-64
2022/11/15 05:31:23;;;;;;;12.13;8.90;;;6.90;37.30;;;;;;5066518;28;20484;-65
2022/11/15 05:33:51;;;;;;;13.37;9.60;;;6.90;37.30;;;;;;5069887;28;20479;-64
2022/11/15 05:36:23;;;;;;;13.90;8.83;;;6.90;37.60;;;;;;5068812;28;20818;-64
2022/11/15 05:38:50;;;;;;;12.90;8.20;;;6.80;37.50;;;;;;5065990;28;20481;-64
2022/11/15 05:41:19;;;;;;;11.97;8.23;;;6.80;37.50;;;;;;5068933;28;20469;-64
2022/11/15 05:43:49;;;;;;;12.47;8.30;;;6.80;37.50;;;;;;5067665;28;20948;-64
2022/11/15 05:46:16;;;;;;;13.87;8.37;;;6.80;37.60;;;;;;5070038;28;20468;-65
2022/11/15 05:48:48;;;;;;;11.30;8.73;;;6.80;37.60;;;;;;5063340;28;20458;-65
2022/11/15 05:51:16;;;;;;;12.17;8.90;;;6.80;37.60;;;;;;5067608;28;20457;-64
2022/11/15 05:53:43;;;;;;;14.20;9.43;;;6.90;37.60;;;;;;5058982;28;20811;-64
2022/11/15 05:56:10;;;;;;;12.80;8.80;;;6.90;37.60;;;;;;5062587;28;20480;-64
2022/11/15 05:58:38;;;;;;;15.20;8.60;;;6.90;37.70;;;;;;5061167;28;20465;-64
2022/11/15 06:01:06;;;;;;;15.03;8.50;;;6.90;37.70;;;;;;5064948;28;20471;-64
2022/11/15 06:03:33;;;;;;;13.47;9.43;;;6.90;37.70;;;;;;5068875;28;20468;-64
2022/11/15 06:06:00;;;;;;;14.47;7.70;;;6.80;37.60;;;;;;5063482;28;20463;-64
2022/11/15 06:08:27;;;;;;;12.03;8.23;;;6.80;37.60;;;;;;5076387;28;20515;-64
2022/11/15 06:10:54;;;;;;;13.83;8.93;;;6.80;37.60;;;;;;5064971;28;20453;-65
2022/11/15 06:13:21;;;;;;;11.77;8.80;;;6.70;37.60;;;;;;5074944;28;20456;-64
2022/11/15 06:15:48;;;;;;;13.17;9.20;;;6.70;37.60;;;;;;5067601;28;20496;-64
2022/11/15 06:18:16;;;;;;;18.83;8.23;;;6.70;37.60;;;;;;5067289;28;20453;-64
2022/11/15 06:20:42;;;;;;;12.40;8.60;;;6.70;37.70;;;;;;5062731;28;20481;-64
2022/11/15 06:23:09;;;;;;;12.47;7.83;;;6.70;37.70;;;;;;5061221;28;20457;-64
2022/11/15 06:25:36;;;;;;;11.50;8.43;;;6.70;37.80;;;;;;5068030;28;20452;-64
2022/11/15 06:28:03;;;;;;;13.60;8.97;;;6.60;37.70;;;;;;5071729;28;20469;-64
2022/11/15 06:30:30;;;;;;;20.97;9.83;;;6.70;37.70;;;;;;5055801;28;20481;-64
2022/11/15 06:33:01;;;;;;;17.40;9.07;;;6.70;37.70;;;;;;5064137;28;20457;-64
2022/11/15 06:35:30;;;;;;;16.30;8.87;;;6.60;37.70;;;;;;5069958;28;20559;-63
2022/11/15 06:38:02;;;;;;;12.47;8.50;;;6.70;37.70;;;;;;5067369;28;20461;-63
2022/11/15 06:40:29;;;;;;;14.00;9.00;;;6.60;37.70;;;;;;5062199;28;20485;-63
2022/11/15 06:42:59;;;;;;;12.70;8.43;;;6.70;37.80;;;;;;5059988;28;20465;-64
2022/11/15 06:45:25;;;;;;;17.53;8.17;;;6.60;37.80;;;;;;5069590;28;20472;-63
2022/11/15 06:47:52;;;;;;;16.63;9.00;;;6.60;37.60;;;;;;5063261;28;20457;-64
2022/11/15 06:50:19;;;;;;;13.13;8.53;;;6.60;37.50;;;;;;5069294;28;20473;-64
2022/11/15 06:52:47;;;;;;;15.30;8.40;;;6.70;37.60;;;;;;5070676;28;20556;-64
2022/11/15 06:55:14;;;;;;;12.37;8.57;;;6.70;37.60;;;;;;5063946;28;20471;-64
2022/11/15 06:57:47;;;;;;;13.67;8.70;;;6.80;37.40;;;;;;5067271;28;20534;-65
2022/11/15 07:00:15;;;;;;;14.33;9.33;;;6.80;37.40;;;;;;5063318;28;20483;-65
2022/11/15 07:02:42;;;;;;;16.83;8.33;;;6.90;37.40;;;;;;5064601;28;20461;-64
2022/11/15 07:05:09;;;;;;;13.93;9.23;;;7.00;37.20;;;;;;5057746;28;20967;-67
2022/11/15 07:07:36;;;;;;;15.23;10.10;;;7.10;37.40;;;;;;5059544;28;20445;-64
2022/11/15 07:10:06;;;;;;;14.63;9.87;;;7.30;37.30;;;;;;5065724;28;20476;-65
2022/11/15 07:12:33;;;;;;;15.30;9.97;;;7.50;37.30;;;;;;5070383;28;20456;-64
2022/11/15 07:14:59;;;;;;;12.47;8.40;;;7.80;36.90;;;;;;5065575;28;20461;-64
2022/11/15 07:17:26;;;;;;;11.50;8.10;;;8.40;36.20;;;;;;5068293;28;20484;-65
2022/11/15 07:19:53;;;;;;;11.03;6.73;;;9.00;35.10;;;;;;5068873;28;20485;-64
2022/11/15 07:22:20;;;;;;;9.10;6.00;;;9.80;33.40;;;;;;5069221;28;20472;-64
2022/11/15 07:24:47;;;;;;;8.07;5.50;;;10.50;31.60;;;;;;5057798;28;20458;-63
2022/11/15 07:27:15;;;;;;;10.30;6.57;;;11.30;29.50;;;;;;5069850;28;20453;-64
2022/11/15 07:29:42;;;;;;;10.40;7.33;;;12.00;27.00;;;;;;5058547;28;20846;-64
2022/11/15 07:32:09;;;;;;;10.77;7.13;;;12.40;25.10;;;;;;5065155;28;20480;-65
2022/11/15 07:34:36;;;;;;;11.57;7.03;;;12.90;23.80;;;;;;5068376;28;20452;-65
2022/11/15 07:37:03;;;;;;;11.80;6.93;;;13.30;23.10;;;;;;5058005;28;20482;-64
2022/11/15 07:39:29;;;;;;;12.07;7.33;;;13.50;22.30;;;;;;5064053;28;20503;-64
2022/11/15 07:44:38;;;;;;;10.27;6.37;;;13.60;21.00;;;;;;5058662;28;20941;-64
2022/11/15 07:47:05;;;;;;;9.80;6.57;;;13.50;20.50;;;;;;5068765;28;20457;-65
2022/11/15 07:49:32;;;;;;;10.40;7.33;;;13.60;20.30;;;;;;5069043;28;20835;-64
2022/11/15 07:51:58;;;;;;;10.67;6.97;;;13.90;19.90;;;;;;5063505;28;20472;-64
2022/11/15 07:54:25;;;;;;;8.93;6.90;;;14.20;19.50;;;;;;5066583;28;20461;-65
2022/11/15 07:56:52;;;;;;;10.20;5.70;;;14.40;18.70;;;;;;5065768;28;20477;-64
2022/11/15 07:59:19;;;;;;;8.00;5.53;;;14.50;18.20;;;;;;5068811;28;20520;-63
2022/11/15 08:01:47;;;;;;;9.67;6.90;;;14.60;18.40;;;;;;5067355;28;20474;-63
2022/11/15 08:04:14;;;;;;;7.97;5.70;;;14.80;18.30;;;;;;5069383;28;20540;-64
2022/11/15 08:06:41;;;;;;;11.10;6.40;;;14.80;17.70;;;;;;5062583;28;20453;-64
2022/11/15 08:09:08;;;;;;;10.80;6.00;;;14.90;18.30;;;;;;5069066;28;20473;-64
2022/11/15 08:11:34;;;;;;;9.10;6.10;;;15.10;18.10;;;;;;5062738;28;20774;-65
2022/11/15 08:14:01;;;;;;;10.47;6.70;;;15.20;16.50;;;;;;5062354;28;20458;-64
2022/11/15 08:16:28;;;;;;;12.07;7.50;;;15.30;14.90;;;;;;5068714;28;20481;-65
2022/11/15 08:18:56;;;;;;;11.00;6.60;;;15.20;15.10;;;;;;5068503;28;20493;-64
2022/11/15 08:21:23;;;;;;;9.10;5.93;;;15.10;15.30;;;;;;5068739;28;21039;-64
2022/11/15 08:23:50;;;;;;;10.60;6.10;;;15.10;16.00;;;;;;5067873;28;20979;-64
2022/11/15 08:26:18;;;;;;;7.83;5.87;;;15.40;15.90;;;;;;5066792;28;20463;-64
2022/11/15 08:28:44;;;;;;;11.40;6.17;;;15.90;14.70;;;;;;5063894;28;20484;-65
2022/11/15 08:31:16;;;;;;;9.37;6.50;;;16.40;12.90;;;;;;5058547;28;21220;-64
2022/11/15 08:33:43;;;;;;;10.40;6.30;;;16.60;11.90;;;;;;5064455;28;20515;-64
2022/11/15 08:36:15;;;;;;;10.47;6.40;;;16.70;11.60;;;;;;5064257;28;20481;-64
2022/11/15 08:38:42;;;;;;;10.17;7.90;;;16.70;11.70;;;;;;5059649;28;20469;-64
2022/11/15 08:41:14;;;;;;;10.40;6.53;;;16.70;11.90;;;;;;5067661;28;20465;-64
2022/11/15 08:43:41;;;;;;;9.33;5.90;;;16.80;12.50;;;;;;5065714;28;20957;-65
2022/11/15 08:46:11;;;;;;;9.70;5.50;;;16.90;12.10;;;;;;5067891;28;21141;-64
2022/11/15 08:48:38;;;;;;;8.70;5.43;;;17.20;11.60;;;;;;5061040;28;20466;-66
2022/11/15 08:51:06;;;;;;;8.27;5.60;;;17.50;10.70;;;;;;5066211;28;20453;-66
2022/11/15 08:53:34;;;;;;;7.93;4.87;;;18.00;9.50;;;;;;5069703;28;20461;-64
2022/11/15 08:56:01;;;;;;;11.10;5.47;;;18.60;8.20;;;;;;5068605;28;20461;-64
2022/11/15 08:58:28;;;;;;;7.00;4.30;;;18.90;7.90;;;;;;5067641;28;20457;-64
2022/11/15 09:00:55;;;;;;;7.17;4.83;;;19.40;7.20;;;;;;5065783;28;20465;-64
2022/11/15 09:03:21;;;;;;;6.40;4.50;;;19.80;6.30;;;;;;5061014;28;20457;-64
2022/11/15 09:05:48;;;;;;;8.07;4.83;;;20.30;6.20;;;;;;5065265;28;20468;-65
2022/11/15 09:08:15;;;;;;;7.70;4.30;;;20.50;5.50;;;;;;5067980;28;20459;-65
2022/11/15 09:10:43;;;;;;;7.70;4.57;;;20.80;5.10;;;;;;5059920;28;20477;-66
2022/11/15 09:13:10;;;;;;;7.30;4.43;;;21.00;4.50;;;;;;5067584;28;20579;-65
2022/11/15 09:15:37;;;;;;;9.70;5.40;;;21.20;4.60;;;;;;5062689;28;20461;-65
2022/11/15 09:18:04;;;;;;;7.27;5.23;;;21.20;4.40;;;;;;5050599;28;20489;-65
2022/11/15 09:20:31;;;;;;;8.00;5.33;;;21.30;4.30;;;;;;5061427;28;20491;-65
2022/11/15 09:23:01;;;;;;;7.80;5.00;;;21.10;4.70;;;;;;5066258;28;20460;-66
2022/11/15 09:25:28;;;;;;;10.90;5.30;;;21.10;5.40;;;;;;5070731;28;20449;-65
2022/11/15 09:27:57;;;;;;;7.10;4.90;;;21.00;5.40;;;;;;5070347;28;20480;-65
2022/11/15 09:30:23;;;;;;;12.80;5.17;;;21.00;5.40;;;;;;5061412;28;20480;-65
2022/11/15 09:32:50;;;;;;;8.00;5.47;;;20.80;5.50;;;;;;5064576;28;20465;-64
2022/11/15 09:35:18;;;;;;;8.40;5.47;;;20.80;5.60;;;;;;5066064;28;20465;-65
2022/11/15 09:37:45;;;;;;;7.30;5.63;;;20.70;5.60;;;;;;5064624;28;20481;-65
2022/11/15 09:40:16;;;;;;;11.17;6.63;;;20.70;5.20;;;;;;5064282;28;20483;-65
2022/11/15 09:42:58;;;;;;;8.30;6.40;;;20.70;5.70;;;;;;5062698;28;20461;-64
2022/11/15 09:45:32;;;;;;;8.20;5.47;;;20.80;6.40;;;;;;5063817;28;20459;-66
2022/11/15 09:48:41;;;;;;;7.70;5.30;;;20.90;6.00;;;;;;5064572;28;20458;-65
2022/11/15 09:51:15;;;;;;;8.40;7.07;;;21.00;6.10;;;;;;5029211;28;20445;-64
2022/11/15 09:53:50;;;;;;;10.47;8.57;;;21.00;6.30;;;;;;5061772;28;20457;-65
2022/11/15 09:56:20;;;;;;;11.20;9.40;;;21.10;6.70;;;;;;5067451;28;20460;-65
2022/11/15 09:58:57;;;;;;;11.90;9.30;;;21.10;6.70;;;;;;5060160;28;20802;-65
2022/11/15 10:01:36;;;;;;;12.27;8.40;;;21.10;6.20;;;;;;5067145;28;20475;-65
2022/11/15 10:04:03;;;;;;;9.03;8.07;;;21.10;6.50;;;;;;5070558;28;20457;-65
2022/11/15 10:06:32;;;;;;;10.20;8.70;;;21.30;6.50;;;;;;5076138;28;20472;-64
2022/11/15 10:09:04;;;;;;;9.70;7.90;;;21.60;6.00;;;;;;5071629;28;20469;-65
2022/11/15 10:11:33;;;;;;;10.40;8.20;;;21.80;5.40;;;;;;5061106;28;20456;-64
2022/11/15 10:14:03;;;;;;;12.40;8.10;;;21.90;5.20;;;;;;5065936;28;20956;-65
2022/11/15 10:16:54;;;;;;;10.50;7.33;;;22.30;4.60;;;;;;5070304;28;20457;-65
2022/11/15 10:19:29;;;;;;;9.30;7.67;;;22.80;4.70;;;;;;5057189;28;20493;-65
2022/11/15 10:22:12;;;;;;;10.60;8.53;;;23.00;2.00;;;;;;5065878;28;20964;-65
2022/11/15 10:24:43;;;;;;;9.40;7.93;;;23.20;2.30;;;;;;5060395;28;20471;-64
2022/11/15 10:27:12;;;;;;;9.53;7.00;;;23.30;1.60;;;;;;5058328;28;20461;-65
2022/11/15 10:29:44;;;;;;;10.27;7.20;;;23.50;1.10;;;;;;5062892;28;20479;-64
2022/11/15 10:32:13;;;;;;;9.60;6.90;;;23.60;1.00;;;;;;5070138;28;20465;-64
2022/11/15 10:34:40;;;;;;;9.60;7.10;;;24.00;1.00;;;;;;5060464;28;20480;-65
2022/11/15 10:37:07;;;;;;;8.87;6.40;;;24.60;1.00;;;;;;5062271;28;20477;-65
2022/11/15 10:39:34;;;;;;;8.67;6.60;;;25.10;1.00;;;;;;5068723;28;20489;-66
2022/11/15 10:42:17;;;;;;;7.43;6.37;;;25.70;1.00;;;;;;5068359;28;20472;-64
2022/11/15 10:44:45;;;;;;;10.23;6.17;;;26.10;1.00;;;;;;5063891;28;20459;-64
2022/11/15 10:47:34;;;;;;;9.90;7.13;;;26.60;1.00;;;;;;5067162;28;20941;-65
2022/11/15 10:50:04;;;;;;;8.93;6.47;;;27.10;1.00;;;;;;5062393;28;20988;-65
2022/11/15 10:52:33;;;;;;;8.60;6.47;;;27.40;1.00;;;;;;5069626;28;20467;-66
2022/11/15 10:55:04;;;;;;;7.30;5.90;;;27.70;1.00;;;;;;5068461;28;20514;-64
2022/11/15 10:57:34;;;;;;;8.40;6.50;;;27.90;1.00;;;;;;5065125;28;21012;-65
2022/11/15 11:00:04;;;;;;;10.70;6.70;;;28.20;1.00;;;;;;5063148;28;20477;-65
2022/11/15 11:02:36;;;;;;;8.23;6.97;;;28.40;1.00;;;;;;5064142;28;20994;-65
2022/11/15 11:05:06;;;;;;;9.87;8.23;;;28.50;1.00;;;;;;5073551;28;20473;-65
2022/11/15 11:07:35;;;;;;;8.60;7.43;;;28.70;1.00;;;;;;5073688;28;20449;-65
2022/11/15 11:10:04;;;;;;;9.13;7.50;;;28.80;1.00;;;;;;5071382;28;20508;-65
2022/11/15 11:12:32;;;;;;;8.57;6.37;;;28.90;1.00;;;;;;5063592;28;20460;-65
2022/11/15 11:15:01;;;;;;;8.20;6.20;;;28.90;1.00;;;;;;5070000;28;20457;-65
2022/11/15 11:17:43;;;;;;;7.33;5.50;;;29.00;1.00;;;;;;5070824;28;20476;-65
2022/11/15 11:20:19;;;;;;;9.20;6.00;;;29.00;1.00;;;;;;5058757;28;20481;-64
2022/11/15 11:22:59;;;;;;;9.93;7.93;;;28.90;1.00;;;;;;5066866;28;20506;-65
2022/11/15 11:25:35;;;;;;;9.30;7.30;;;28.60;1.00;;;;;;5066684;28;20457;-65
2022/11/15 11:28:21;;;;;;;8.57;7.50;;;28.60;1.00;;;;;;5066546;28;20827;-67
2022/11/15 11:30:56;;;;;;;9.10;6.90;;;28.40;1.00;;;;;;5066194;28;20831;-64
2022/11/15 11:33:30;;;;;;;9.63;6.37;;;28.00;1.00;;;;;;5063899;28;20464;-65
2022/11/15 11:36:07;;;;;;;9.37;5.60;;;27.80;1.00;;;;;;5063957;28;20449;-65
2022/11/15 11:38:45;;;;;;;7.57;5.47;;;27.50;1.00;;;;;;5066173;28;20480;-64
2022/11/15 11:41:21;;;;;;;8.10;4.70;;;27.30;1.00;;;;;;5060513;28;20461;-64
2022/11/15 11:43:57;;;;;;;7.20;4.63;;;27.10;1.00;;;;;;5069381;28;20460;-65
2022/11/15 11:46:48;;;;;;;6.33;4.10;;;27.00;1.00;;;;;;5065904;28;20464;-64
2022/11/15 11:49:22;;;;;;;7.60;4.87;;;26.90;1.00;;;;;;5066602;28;20483;-64
2022/11/15 11:51:55;;;;;;;7.13;5.17;;;26.50;1.00;;;;;;5063788;28;20488;-64
2022/11/15 11:54:26;;;;;;;8.17;5.33;;;26.10;1.00;;;;;;5067931;28;20868;-64
2022/11/15 11:56:58;;;;;;;8.50;5.63;;;25.60;1.00;;;;;;5062110;28;20449;-64
2022/11/15 11:59:32;;;;;;;7.00;5.00;;;25.30;1.00;;;;;;5055937;28;20557;-65
2022/11/15 12:02:02;;;;;;;8.17;4.83;;;25.20;1.00;;;;;;5066599;28;20986;-65
2022/11/15 12:04:35;;;;;;;10.10;6.20;;;25.40;1.00;;;;;;5068729;28;20463;-65
2022/11/15 12:07:09;;;;;;;10.17;7.17;;;25.50;1.00;;;;;;5064151;28;20465;-64
2022/11/15 12:09:40;;;;;;;11.00;7.83;;;25.50;1.00;;;;;;5064839;28;20478;-64
2022/11/15 12:12:12;;;;;;;10.77;7.70;;;25.30;1.00;;;;;;5067187;28;20464;-63
2022/11/15 12:14:45;;;;;;;10.50;7.50;;;25.20;1.00;;;;;;5075374;28;20834;-64
2022/11/15 12:17:13;;;;;;;10.93;8.33;;;25.00;1.00;;;;;;5062904;28;20480;-65
2022/11/15 12:19:42;;;;;;;14.70;7.43;;;24.90;1.00;;;;;;5061000;28;20595;-64
2022/11/15 12:22:14;;;;;;;9.77;6.87;;;24.80;1.00;;;;;;5062194;28;20449;-65
2022/11/15 12:24:46;;;;;;;10.60;6.27;;;24.50;1.00;;;;;;5064471;28;20460;-65
2022/11/15 12:27:18;;;;;;;8.63;6.63;;;24.00;1.00;;;;;;5062734;28;20492;-65
2022/11/15 12:29:51;;;;;;;9.87;6.57;;;23.40;1.00;;;;;;5063760;28;20477;-65
2022/11/15 12:32:26;;;;;;;8.63;6.27;;;23.00;1.00;;;;;;5062109;28;20469;-66
2022/11/15 12:34:56;;;;;;;8.90;6.07;;;22.70;1.40;;;;;;5066807;28;20449;-66
2022/11/15 12:37:49;;;;;;;8.30;6.20;;;22.60;1.20;;;;;;5066773;28;20477;-64
2022/11/15 12:40:23;;;;;;;9.20;7.00;;;22.30;1.40;;;;;;5057820;28;20511;-65
2022/11/15 12:43:21;;;;;;;8.40;5.47;;;22.00;2.00;;;;;;5058843;28;20461;-66
2022/11/15 12:45:48;;;;;;;8.80;5.97;;;21.60;2.40;;;;;;5063913;28;20468;-65
2022/11/15 12:48:57;;;;;;;9.03;5.70;;;21.40;3.30;;;;;;5068743;28;20453;-65
2022/11/15 12:52:04;;;;;;;9.87;6.67;;;20.90;3.40;;;;;;5062385;28;20457;-66
2022/11/15 12:55:07;;;;;;;10.90;6.30;;;20.30;4.00;;;;;;5065922;28;20833;-64
2022/11/15 12:57:42;;;;;;;9.80;5.87;;;19.80;4.70;;;;;;5057990;28;20476;-66
2022/11/15 13:00:38;;;;;;;13.40;6.00;;;19.40;5.10;;;;;;5062113;28;21026;-65
2022/11/15 13:03:29;;;;;;;18.87;6.27;;;19.10;5.50;;;;;;5062459;28;20519;-64
2022/11/15 13:06:06;;;;;;;8.57;5.17;;;18.80;5.80;;;;;;5060686;28;20458;-65
2022/11/15 13:08:48;;;;;;;12.20;5.70;;;18.50;6.10;;;;;;5048849;28;20468;-66
2022/11/15 13:11:47;;;;;;;8.90;5.20;;;18.30;6.60;;;;;;5062373;28;20522;-64
2022/11/15 13:14:44;;;;;;;8.90;4.70;;;18.00;7.20;;;;;;5059790;28;20453;-63
2022/11/15 13:17:42;;;;;;;12.43;7.07;;;17.80;7.60;;;;;;5065289;28;20526;-64